Terminal Aerodrome Forecast
Issued by NWS Midland/Odessa, TX

Home | Current Version | Previous Version | Text Only | Print | Product List | Glossary On
Versions: 1 2 3 4 5 6 7 8 9 10 11 12 13 14 15 16 17 18 19 20 21 22 23 24 25 26
000
FTUS44 KMAF 260500
TAFMAF
TAF
KMAF 260520Z 2606/2706 24007KT P6SM SKC
     FM261500 27017G24KT P6SM BKN200
     FM262100 26025G32KT 5SM BLDU SCT110 BKN150
     FM270100 25014G22KT P6SM BKN150=

USA.gov is the U.S. government's official web portal to all federal, state and local government web resources and services.